createdAt,value
2023-02-15T00:03:38.804Z,22.9
2023-02-15T00:08:57.378Z,23
2023-02-15T00:14:16.186Z,23
2023-02-15T00:19:34.472Z,23
2023-02-15T00:24:52.711Z,23
2023-02-15T00:30:11.312Z,23
2023-02-15T00:35:29.314Z,23
2023-02-15T00:40:47.800Z,23
2023-02-15T00:46:06.402Z,23
2023-02-15T00:51:25.061Z,23
2023-02-15T00:56:42.992Z,23
2023-02-15T01:02:01.775Z,23
2023-02-15T01:07:20.496Z,23
2023-02-15T01:12:38.698Z,23
2023-02-15T01:17:57.204Z,23
2023-02-15T01:23:15.173Z,23
2023-02-15T01:28:33.671Z,23
2023-02-15T01:33:52.146Z,23
2023-02-15T01:39:10.131Z,23
2023-02-15T01:44:28.881Z,23
2023-02-15T01:49:47.358Z,23
2023-02-15T01:55:09.218Z,23
2023-02-15T02:00:27.627Z,23
2023-02-15T02:05:46.109Z,23
2023-02-15T02:11:04.903Z,23
2023-02-15T02:16:23.291Z,23
2023-02-15T02:21:41.635Z,23.1
2023-02-15T02:26:59.882Z,23.1
2023-02-15T02:32:18.185Z,23.1
2023-02-15T02:37:36.973Z,23.1
2023-02-15T02:42:55.544Z,23.1
2023-02-15T02:48:13.778Z,23.1
2023-02-15T02:53:32.294Z,23.1
2023-02-15T02:58:50.516Z,23.1
2023-02-15T03:04:08.991Z,23.1
2023-02-15T03:09:27.475Z,23.1
2023-02-15T03:14:46.040Z,23.1
2023-02-15T03:20:03.980Z,23.1
2023-02-15T03:25:22.743Z,23.1
2023-02-15T03:30:41.555Z,23.1
2023-02-15T03:36:00.797Z,23.1
2023-02-15T03:41:20.089Z,23.1
2023-02-15T03:46:39.133Z,23.1
2023-02-15T03:51:57.288Z,23
2023-02-15T03:57:15.489Z,23
2023-02-15T04:02:18.120Z,23.1
2023-02-15T04:07:36.584Z,23.1
2023-02-15T04:12:55.115Z,23.1
2023-02-15T04:18:13.728Z,23.1
2023-02-15T04:23:32.205Z,23.1
2023-02-15T04:28:50.692Z,23
2023-02-15T04:34:09.232Z,23
2023-02-15T04:39:27.714Z,23.1
2023-02-15T04:44:46.218Z,23
2023-02-15T04:50:04.476Z,23.1
2023-02-15T04:55:22.959Z,23
2023-02-15T05:00:41.223Z,23.1
2023-02-15T05:06:00.313Z,23
2023-02-15T05:11:19.880Z,23
2023-02-15T05:16:38.348Z,23.1
2023-02-15T05:21:56.753Z,23.1
2023-02-15T05:27:15.237Z,23
2023-02-15T05:32:33.762Z,23.1
2023-02-15T05:37:52.865Z,23.1
2023-02-15T05:43:11.619Z,23.1
2023-02-15T05:48:30.554Z,23.1
2023-02-15T05:53:49.390Z,23.1
2023-02-15T05:59:07.862Z,23
2023-02-15T06:04:26.642Z,23.1
2023-02-15T06:09:45.128Z,23.1
2023-02-15T06:15:03.786Z,23.1
2023-02-15T06:20:22.274Z,23.1
2023-02-15T06:25:40.790Z,23.1
2023-02-15T06:30:59.546Z,23.1
2023-02-15T06:36:18.629Z,23.1
2023-02-15T06:41:37.144Z,23.1
2023-02-15T06:46:55.914Z,23.1
2023-02-15T06:52:14.676Z,23.1
2023-02-15T06:57:33.504Z,23.1
2023-02-15T07:02:51.756Z,23.1
2023-02-15T07:08:10.531Z,23.1
2023-02-15T07:13:29.272Z,23.1
2023-02-15T07:18:47.545Z,23.1
2023-02-15T07:24:06.832Z,23.1
2023-02-15T07:29:10.195Z,23.1
2023-02-15T07:34:28.426Z,23.1
2023-02-15T07:39:46.994Z,23.1
2023-02-15T07:45:05.564Z,23.1
2023-02-15T07:50:24.057Z,23.1
2023-02-15T07:55:42.532Z,23.1
2023-02-15T08:01:01.330Z,23.1
2023-02-15T08:06:19.880Z,23.1
2023-02-15T08:11:38.033Z,23.1
2023-02-15T08:16:56.454Z,23.1
2023-02-15T08:22:14.787Z,23.1
2023-02-15T08:27:32.994Z,23.1
2023-02-15T08:32:51.261Z,23
2023-02-15T08:38:09.502Z,23.1
2023-02-15T08:43:27.983Z,23
2023-02-15T08:48:47.593Z,23
2023-02-15T08:54:06.079Z,23.1
2023-02-15T08:59:24.844Z,23.1
2023-02-15T09:04:43.433Z,23.1
2023-02-15T09:10:02.126Z,23.1
2023-02-15T09:15:20.891Z,23.1
2023-02-15T09:20:39.926Z,23.1
2023-02-15T09:25:58.217Z,23.1
2023-02-15T09:31:17.048Z,23.1
2023-02-15T09:36:35.661Z,23.1
2023-02-15T09:41:53.885Z,23.1
2023-02-15T09:47:12.375Z,23.1
2023-02-15T09:52:31.509Z,23.1
2023-02-15T09:57:49.984Z,23.1
2023-02-15T10:02:53.832Z,23.1
2023-02-15T10:07:56.809Z,23.1
2023-02-15T10:13:15.112Z,23.2
2023-02-15T10:18:33.624Z,23.2
2023-02-15T10:23:52.554Z,23.2
2023-02-15T10:29:11.014Z,23.2
2023-02-15T10:34:29.849Z,23.2
2023-02-15T10:39:47.844Z,23.2
2023-02-15T10:45:06.306Z,23.2
2023-02-15T10:50:24.532Z,23.3
2023-02-15T10:55:42.980Z,23.2
2023-02-15T11:01:02.608Z,23.3
2023-02-15T11:06:21.988Z,23.3
2023-02-15T11:11:41.070Z,23.3
2023-02-15T11:16:59.846Z,23.4
2023-02-15T11:22:18.469Z,23.4
2023-02-15T11:27:37.494Z,23.5
2023-02-15T11:32:56.265Z,23.5
2023-02-15T11:38:14.795Z,23.5
2023-02-15T11:43:33.341Z,23.5
2023-02-15T11:48:51.609Z,23.5
2023-02-15T11:54:10.389Z,23.5
2023-02-15T11:59:28.733Z,23.5
2023-02-15T12:04:47.209Z,23.5
2023-02-15T12:10:05.797Z,23.5
2023-02-15T12:15:24.091Z,23.5
2023-02-15T12:20:42.743Z,23.5
2023-02-15T12:26:01.266Z,23.5
2023-02-15T12:31:20.216Z,23.6
2023-02-15T12:36:38.939Z,23.6
2023-02-15T12:41:56.883Z,23.5
2023-02-15T12:47:15.596Z,23.5
2023-02-15T12:52:39.314Z,23.5
2023-02-15T12:57:58.025Z,23.5
2023-02-15T13:03:16.685Z,23.5
2023-02-15T13:08:34.932Z,23.5
2023-02-15T13:13:53.780Z,23.5
2023-02-15T13:19:12.370Z,23.5
2023-02-15T13:24:31.147Z,23.5
2023-02-15T13:29:49.650Z,23.5
2023-02-15T13:35:08.110Z,23.5
2023-02-15T13:40:10.716Z,23.5
2023-02-15T13:45:29.555Z,23.4
2023-02-15T13:50:47.982Z,23.4
2023-02-15T13:56:06.516Z,23.4
2023-02-15T14:01:24.888Z,23.4
2023-02-15T14:06:44.047Z,23.4
2023-02-15T14:12:02.624Z,23.4
2023-02-15T14:17:21.325Z,23.4
2023-02-15T14:22:39.926Z,23.4
2023-02-15T14:27:58.438Z,23.4
2023-02-15T14:33:17.139Z,23.4
2023-02-15T14:38:24.778Z,23.3
2023-02-15T14:43:44.294Z,23.3
2023-02-15T14:49:04.913Z,23.3
2023-02-15T14:54:23.352Z,23.3
2023-02-15T14:59:41.824Z,23.3
2023-02-15T15:05:00.674Z,23.3
2023-02-15T15:10:18.966Z,23.3
2023-02-15T15:15:40.594Z,23.3
2023-02-15T15:20:59.414Z,23.3
2023-02-15T15:26:17.973Z,23.2
2023-02-15T15:31:36.826Z,23.2
2023-02-15T15:36:41.061Z,23.2
2023-02-15T15:41:59.372Z,23.2
2023-02-15T15:47:01.939Z,23.2
2023-02-15T15:52:20.435Z,23.2
2023-02-15T15:57:39.124Z,23.2
2023-02-15T16:02:58.004Z,23.2
2023-02-15T16:08:16.535Z,23.2
2023-02-15T16:13:35.347Z,23.2
2023-02-15T16:18:54.103Z,23.2
2023-02-15T16:24:12.892Z,23.1
2023-02-15T16:29:31.726Z,23.1
2023-02-15T16:34:50.216Z,23.1
2023-02-15T16:40:08.752Z,23.1
2023-02-15T16:45:27.283Z,23.1
2023-02-15T16:50:45.349Z,23.1
2023-02-15T16:56:03.580Z,23.1
2023-02-15T17:01:22.439Z,23.1
2023-02-15T17:06:25.935Z,23.1
2023-02-15T17:11:44.450Z,23.1
2023-02-15T17:17:03.249Z,23.1
2023-02-15T17:22:28.195Z,23.1
2023-02-15T17:27:49.299Z,23.1
2023-02-15T17:32:55.245Z,23.1
2023-02-15T17:38:14.618Z,23.1
2023-02-15T17:43:32.833Z,23.1
2023-02-15T17:48:51.015Z,23.1
2023-02-15T17:54:09.540Z,23.2
2023-02-15T17:59:27.771Z,23.2
2023-02-15T18:04:46.557Z,23.2
2023-02-15T18:10:05.151Z,23.2
2023-02-15T18:15:23.723Z,23.1
2023-02-15T18:20:42.261Z,23.1
2023-02-15T18:26:00.584Z,23.1
2023-02-15T18:31:19.286Z,23.1
2023-02-15T18:36:37.757Z,23.1
2023-02-15T18:41:55.950Z,23.1
2023-02-15T18:47:14.437Z,23.1
2023-02-15T18:52:33.293Z,23
2023-02-15T18:57:51.532Z,23
2023-02-15T19:03:10.044Z,22.9
2023-02-15T19:08:28.640Z,22.7
2023-02-15T19:13:47.111Z,22.7
2023-02-15T19:19:07.589Z,22.8
2023-02-15T19:24:26.284Z,22.7
2023-02-15T19:29:45.020Z,22.7
2023-02-15T19:35:03.233Z,22.7
2023-02-15T19:40:22.337Z,22.8
2023-02-15T19:45:40.607Z,22.8
2023-02-15T19:50:59.039Z,22.8
2023-02-15T19:56:17.703Z,22.8
2023-02-15T20:01:36.241Z,22.8
2023-02-15T20:06:39.273Z,22.8
2023-02-15T20:11:57.313Z,22.8
2023-02-15T20:17:15.795Z,22.8
2023-02-15T20:22:33.858Z,22.8
2023-02-15T20:27:52.013Z,22.8
2023-02-15T20:33:10.720Z,22.8
2023-02-15T20:38:29.886Z,22.8
2023-02-15T20:43:48.546Z,22.8
2023-02-15T20:49:07.079Z,22.8
2023-02-15T20:54:27.987Z,22.8
2023-02-15T20:59:46.871Z,22.8
2023-02-15T21:05:05.311Z,22.8
2023-02-15T21:10:24.127Z,22.8
2023-02-15T21:15:43.045Z,22.8
2023-02-15T21:21:01.765Z,22.8
2023-02-15T21:26:20.752Z,22.9
2023-02-15T21:31:39.994Z,22.9
2023-02-15T21:36:58.397Z,22.9
2023-02-15T21:42:16.850Z,22.9
2023-02-15T21:47:35.433Z,22.9
2023-02-15T21:52:53.972Z,22.9
2023-02-15T21:58:12.744Z,22.9
2023-02-15T22:03:31.257Z,22.9
2023-02-15T22:08:49.443Z,22.9
2023-02-15T22:14:08.007Z,22.9
2023-02-15T22:19:26.934Z,23
2023-02-15T22:24:44.994Z,23
2023-02-15T22:30:03.536Z,23
2023-02-15T22:35:21.969Z,23
2023-02-15T22:40:40.447Z,23
2023-02-15T22:45:58.960Z,23
2023-02-15T22:51:17.616Z,23
2023-02-15T22:56:35.894Z,23
2023-02-15T23:01:54.916Z,23
2023-02-15T23:07:13.439Z,23
2023-02-15T23:12:32.340Z,23
2023-02-15T23:17:50.857Z,23
2023-02-15T23:23:10.364Z,23
2023-02-15T23:28:29.226Z,23
2023-02-15T23:33:47.479Z,23
2023-02-15T23:39:06.291Z,23
2023-02-15T23:44:25.056Z,23
2023-02-15T23:49:43.565Z,23
2023-02-15T23:55:02.379Z,23
